createdAt,value
2023-03-26T00:02:14.790Z,99673.91
2023-03-26T00:05:21.805Z,99678.53
2023-03-26T00:08:24.902Z,99683.13
2023-03-26T00:11:31.000Z,99697.84
2023-03-26T00:14:36.463Z,99689.34
2023-03-26T00:17:39.572Z,99694.53
2023-03-26T00:20:42.590Z,99691.03
2023-03-26T00:23:46.062Z,99691.59
2023-03-26T00:26:53.489Z,99696.78
2023-03-26T00:29:59.675Z,99707.06
2023-03-26T00:33:03.107Z,99702.56
2023-03-26T00:36:10.022Z,99704.00
2023-03-26T00:39:14.081Z,99699.84
2023-03-26T00:42:17.029Z,99698.06
2023-03-26T00:45:22.343Z,99700.66
2023-03-26T00:48:41.930Z,99704.00
2023-03-26T00:51:47.826Z,99704.91
2023-03-26T00:54:53.245Z,99705.84
2023-03-26T00:57:56.408Z,99708.44
2023-03-26T01:01:03.977Z,99701.63
2023-03-26T01:04:27.339Z,99705.63
2023-03-26T01:07:31.237Z,99711.66
2023-03-26T01:10:38.892Z,99718.47
2023-03-26T01:13:45.909Z,99713.16
2023-03-26T01:16:54.843Z,99726.75
2023-03-26T01:20:07.124Z,99731.44
2023-03-26T01:23:10.989Z,99721.41
2023-03-26T01:26:37.755Z,99733.00
2023-03-26T01:29:52.618Z,99736.50
2023-03-26T01:33:03.290Z,99734.16
2023-03-26T01:36:13.255Z,99729.19
2023-03-26T01:39:25.280Z,99726.44
2023-03-26T01:42:38.694Z,99719.94
2023-03-26T01:45:46.225Z,99727.50
2023-03-26T01:48:51.062Z,99731.03
2023-03-26T01:52:00.614Z,99743.00
2023-03-26T01:55:04.192Z,99715.66
2023-03-26T01:58:15.424Z,99717.56
2023-03-26T02:01:27.807Z,99719.19
2023-03-26T02:04:37.795Z,99718.38
2023-03-26T02:07:47.897Z,99727.91
2023-03-26T02:10:57.475Z,99722.81
2023-03-26T02:14:01.878Z,99723.88
2023-03-26T02:17:04.965Z,99725.88
2023-03-26T02:20:10.813Z,99709.50
2023-03-26T02:23:16.397Z,99709.50
2023-03-26T02:26:21.152Z,99714.94
2023-03-26T02:29:43.441Z,99725.66
2023-03-26T02:33:06.612Z,99714.47
2023-03-26T02:36:19.605Z,99709.28
2023-03-26T02:39:23.711Z,99704.66
2023-03-26T02:42:34.808Z,99715.97
2023-03-26T02:45:39.338Z,99722.91
2023-03-26T02:48:43.988Z,99726.44
2023-03-26T02:51:56.325Z,99734.91
2023-03-26T02:55:03.401Z,99727.97
2023-03-26T02:58:07.748Z,99739.38
2023-03-26T03:01:18.473Z,99736.69
2023-03-26T03:04:28.667Z,99743.50
2023-03-26T03:07:31.725Z,99737.28
2023-03-26T03:10:37.873Z,99743.19
2023-03-26T03:13:46.995Z,99754.97
2023-03-26T03:17:00.631Z,99753.22
2023-03-26T03:20:07.854Z,99748.03
2023-03-26T03:23:10.991Z,99754.78
2023-03-26T03:26:17.033Z,99746.13
2023-03-26T03:29:26.649Z,99760.03
2023-03-26T03:32:31.889Z,99752.19
2023-03-26T03:35:39.952Z,99754.66
2023-03-26T03:38:45.752Z,99751.72
2023-03-26T03:41:53.542Z,99743.72
2023-03-26T03:44:56.878Z,99739.59
2023-03-26T03:48:20.529Z,99754.41
2023-03-26T03:51:24.750Z,99754.31
2023-03-26T03:54:34.050Z,99756.91
2023-03-26T03:57:44.355Z,99755.84
2023-03-26T04:00:53.567Z,99752.31
2023-03-26T04:04:16.682Z,99755.03
2023-03-26T04:07:31.030Z,99755.63
2023-03-26T04:11:03.135Z,99760.00
2023-03-26T04:14:36.491Z,99765.88
2023-03-26T04:17:53.988Z,99773.66
2023-03-26T04:21:02.384Z,99778.00
2023-03-26T04:24:08.085Z,99772.81
2023-03-26T04:27:35.405Z,99779.44
2023-03-26T04:31:03.719Z,99777.31
2023-03-26T04:34:24.255Z,99772.00
2023-03-26T04:37:49.124Z,99773.28
2023-03-26T04:41:00.523Z,99773.84
2023-03-26T04:44:23.219Z,99772.44
2023-03-26T04:47:31.592Z,99777.84
2023-03-26T04:50:34.578Z,99771.34
2023-03-26T04:53:39.246Z,99780.19
2023-03-26T04:57:04.407Z,99770.84
2023-03-26T05:00:19.375Z,99780.63
2023-03-26T05:03:31.278Z,99783.94
2023-03-26T05:06:39.760Z,99783.22
2023-03-26T05:09:52.767Z,99785.56
2023-03-26T05:13:00.318Z,99781.22
2023-03-26T05:16:10.755Z,99785.38
2023-03-26T05:19:22.068Z,99782.97
2023-03-26T05:22:25.728Z,99773.56
2023-03-26T05:25:50.681Z,99787.72
2023-03-26T05:28:57.938Z,99777.81
2023-03-26T05:32:10.312Z,99778.50
2023-03-26T05:38:47.268Z,99784.09
2023-03-26T05:41:57.998Z,99780.88
2023-03-26T05:45:14.843Z,99787.50
2023-03-26T05:48:18.456Z,99788.34
2023-03-26T05:51:23.401Z,99785.84
2023-03-26T05:54:37.289Z,99789.03
2023-03-26T05:58:04.219Z,99793.19
2023-03-26T06:01:29.330Z,99782.56
2023-03-26T06:04:52.524Z,99794.81
2023-03-26T06:08:07.359Z,99798.38
2023-03-26T06:11:14.377Z,99790.47
2023-03-26T06:14:18.722Z,99795.03
2023-03-26T06:17:41.582Z,99798.13
2023-03-26T06:20:55.378Z,99797.19
2023-03-26T06:24:07.829Z,99803.09
2023-03-26T06:27:23.570Z,99812.53
2023-03-26T06:30:51.330Z,99808.78
2023-03-26T06:34:06.838Z,99813.13
2023-03-26T06:37:11.174Z,99817.25
2023-03-26T06:40:15.892Z,99819.63
2023-03-26T06:43:48.109Z,99814.91
2023-03-26T06:47:16.357Z,99818.41
2023-03-26T06:50:38.311Z,99828.19
2023-03-26T06:53:56.978Z,99823.03
2023-03-26T06:57:19.556Z,99831.19
2023-03-26T07:00:42.208Z,99823.09
2023-03-26T07:04:13.110Z,99824.16
2023-03-26T07:07:34.717Z,99821.28
2023-03-26T07:11:22.252Z,99826.81
2023-03-26T07:14:48.610Z,99823.78
2023-03-26T07:18:15.008Z,99815.31
2023-03-26T07:21:21.917Z,99820.22
2023-03-26T07:24:26.353Z,99809.75
2023-03-26T07:27:54.360Z,99816.25
2023-03-26T07:31:22.797Z,99813.53
2023-03-26T07:34:47.269Z,99814.38
2023-03-26T07:38:24.688Z,99818.53
2023-03-26T07:41:48.116Z,99823.13
2023-03-26T07:45:27.332Z,99827.25
2023-03-26T07:48:43.740Z,99820.69
2023-03-26T07:51:52.056Z,99831.72
2023-03-26T07:55:15.920Z,99840.22
2023-03-26T07:59:07.925Z,99830.09
2023-03-26T08:02:36.915Z,99834.81
2023-03-26T08:06:08.264Z,99830.59
2023-03-26T08:09:24.901Z,99834.56
2023-03-26T08:12:49.407Z,99830.31
2023-03-26T08:16:05.795Z,99829.41
2023-03-26T08:19:30.923Z,99834.50
2023-03-26T08:22:40.952Z,99826.09
2023-03-26T08:25:54.683Z,99822.34
2023-03-26T08:29:12.026Z,99821.63
2023-03-26T08:32:17.792Z,99826.38
2023-03-26T08:35:20.796Z,99820.75
2023-03-26T08:38:24.335Z,99826.16
2023-03-26T08:42:08.856Z,99824.31
2023-03-26T08:45:58.913Z,99829.03
2023-03-26T08:49:42.308Z,99819.47
2023-03-26T08:53:28.145Z,99823.84
2023-03-26T08:56:53.776Z,99813.34
2023-03-26T09:00:38.891Z,99808.03
2023-03-26T09:04:17.921Z,99805.22
2023-03-26T09:08:07.502Z,99811.09
2023-03-26T09:11:38.238Z,99805.78
2023-03-26T09:15:22.176Z,99804.38
2023-03-26T09:19:16.540Z,99793.25
2023-03-26T09:23:15.062Z,99795.16
2023-03-26T09:26:40.246Z,99794.34
2023-03-26T09:30:21.113Z,99791.50
2023-03-26T09:33:55.963Z,99788.69
2023-03-26T09:37:27.435Z,99779.22
2023-03-26T09:40:39.629Z,99786.53
2023-03-26T09:44:45.697Z,99791.97
2023-03-26T09:48:07.465Z,99805.22
2023-03-26T09:51:46.488Z,99813.06
2023-03-26T09:55:15.385Z,99823.13
2023-03-26T09:58:49.717Z,99825.28
2023-03-26T10:02:10.980Z,99817.78
2023-03-26T10:05:50.988Z,99814.78
2023-03-26T10:09:22.544Z,99807.75
2023-03-26T10:12:37.397Z,99805.84
2023-03-26T10:16:04.253Z,99805.41
2023-03-26T10:19:24.868Z,99801.94
2023-03-26T10:22:44.393Z,99791.97
2023-03-26T10:26:07.146Z,99789.88
2023-03-26T10:29:41.262Z,99787.63
2023-03-26T10:32:59.322Z,99792.31
2023-03-26T10:36:26.750Z,99788.59
2023-03-26T10:40:09.874Z,99791.75
2023-03-26T10:43:49.765Z,99792.53
2023-03-26T10:47:32.100Z,99797.06
2023-03-26T10:51:00.923Z,99790.97
2023-03-26T10:54:12.318Z,99789.03
2023-03-26T10:57:34.914Z,99792.81
2023-03-26T11:00:45.493Z,99797.44
2023-03-26T11:03:52.651Z,99799.41
2023-03-26T11:07:05.204Z,99796.13
2023-03-26T11:10:13.697Z,99796.22
2023-03-26T11:13:25.593Z,99796.69
2023-03-26T11:16:42.428Z,99795.19
2023-03-26T11:19:53.324Z,99798.13
2023-03-26T11:23:16.564Z,99788.69
2023-03-26T11:26:28.633Z,99785.38
2023-03-26T11:29:48.858Z,99783.97
2023-03-26T11:32:55.797Z,99775.53
2023-03-26T11:36:04.782Z,99774.69
2023-03-26T11:39:14.618Z,99781.19
2023-03-26T11:42:23.394Z,99776.53
2023-03-26T11:45:30.748Z,99780.56
2023-03-26T11:48:41.801Z,99777.72
2023-03-26T11:51:49.772Z,99776.72
2023-03-26T11:54:53.245Z,99777.44
2023-03-26T11:58:00.651Z,99774.56
2023-03-26T12:01:14.918Z,99772.41
2023-03-26T12:04:28.200Z,99760.44
2023-03-26T12:07:35.634Z,99762.84
2023-03-26T12:10:41.313Z,99757.44
2023-03-26T12:13:54.354Z,99752.16
2023-03-26T12:17:04.608Z,99744.81
2023-03-26T12:20:34.703Z,99744.16
2023-03-26T12:23:57.034Z,99736.16
2023-03-26T12:27:03.536Z,99733.84
2023-03-26T12:30:13.865Z,99725.25
2023-03-26T12:33:26.039Z,99724.81
2023-03-26T12:36:33.300Z,99726.44
2023-03-26T12:40:06.516Z,99720.34
2023-03-26T12:44:50.878Z,99727.16
2023-03-26T12:48:00.392Z,99723.19
2023-03-26T12:50:00.297Z,99723.22
2023-03-26T12:53:38.444Z,99722.13
2023-03-26T12:57:12.250Z,99720.22
2023-03-26T13:00:28.789Z,99715.53
2023-03-26T13:03:42.710Z,99720.19
2023-03-26T13:07:01.547Z,99723.91
2023-03-26T13:10:36.081Z,99720.22
2023-03-26T13:14:10.565Z,99713.06
2023-03-26T13:17:24.665Z,99711.44
2023-03-26T13:20:39.715Z,99714.84
2023-03-26T13:23:53.139Z,99712.88
2023-03-26T13:27:12.347Z,99711.97
2023-03-26T13:30:28.700Z,99713.06
2023-03-26T13:33:50.647Z,99707.03
2023-03-26T13:37:10.567Z,99707.31
2023-03-26T13:40:27.228Z,99700.47
2023-03-26T13:43:44.816Z,99700.19
2023-03-26T13:46:51.834Z,99692.09
2023-03-26T13:50:00.601Z,99697.72
2023-03-26T13:53:13.415Z,99693.28
2023-03-26T13:56:22.104Z,99691.69
2023-03-26T13:59:33.590Z,99693.31
2023-03-26T14:02:42.540Z,99694.97
2023-03-26T14:05:49.609Z,99694.81
2023-03-26T14:08:58.730Z,99692.63
2023-03-26T14:12:32.709Z,99698.13
2023-03-26T14:15:43.315Z,99690.03
2023-03-26T14:18:53.640Z,99685.16
2023-03-26T14:22:14.027Z,99683.16
2023-03-26T14:25:38.945Z,99682.81
2023-03-26T14:29:19.686Z,99686.13
2023-03-26T14:32:53.709Z,99684.78
2023-03-26T14:36:07.941Z,99682.41
2023-03-26T14:39:44.807Z,99682.22
2023-03-26T14:42:56.590Z,99677.34
2023-03-26T14:46:17.675Z,99685.34
2023-03-26T14:50:05.020Z,99676.13
2023-03-26T14:53:19.772Z,99677.50
2023-03-26T14:56:54.333Z,99673.25
2023-03-26T15:01:04.018Z,99670.03
2023-03-26T15:04:44.535Z,99672.16
2023-03-26T15:08:33.343Z,99665.28
2023-03-26T15:11:48.046Z,99662.50
2023-03-26T15:15:54.210Z,99662.72
2023-03-26T15:20:00.736Z,99661.16
2023-03-26T15:23:47.238Z,99665.31
2023-03-26T15:27:38.236Z,99667.50
2023-03-26T15:31:10.833Z,99665.34
2023-03-26T15:34:57.249Z,99661.22
2023-03-26T15:38:45.332Z,99664.38
2023-03-26T15:41:55.178Z,99671.53
2023-03-26T15:45:20.349Z,99669.19
2023-03-26T15:48:50.635Z,99667.81
2023-03-26T15:52:00.704Z,99656.44
2023-03-26T15:55:26.409Z,99666.97
2023-03-26T15:58:35.378Z,99662.06
2023-03-26T16:02:05.177Z,99659.06
2023-03-26T16:05:33.171Z,99663.41
2023-03-26T16:08:47.471Z,99664.47
2023-03-26T16:11:55.352Z,99664.59
2023-03-26T16:15:27.719Z,99669.63
2023-03-26T16:18:37.145Z,99665.38
2023-03-26T16:21:54.389Z,99669.25
2023-03-26T16:25:28.537Z,99669.09
2023-03-26T16:28:35.779Z,99665.00
2023-03-26T16:32:04.745Z,99672.78
2023-03-26T16:35:39.876Z,99671.03
2023-03-26T16:39:14.746Z,99677.56
2023-03-26T16:42:35.717Z,99679.56
2023-03-26T16:45:50.562Z,99682.44
2023-03-26T16:49:02.120Z,99685.81
2023-03-26T16:52:23.880Z,99685.88
2023-03-26T16:55:41.057Z,99692.03
2023-03-26T16:58:55.935Z,99693.06
2023-03-26T17:02:16.099Z,99687.25
2023-03-26T17:05:23.804Z,99692.25
2023-03-26T17:08:37.187Z,99690.28
2023-03-26T17:11:56.530Z,99699.41
2023-03-26T17:15:15.266Z,99698.28
2023-03-26T17:18:34.277Z,99695.47
2023-03-26T17:21:49.113Z,99698.78
2023-03-26T17:25:00.350Z,99700.00
2023-03-26T17:28:39.452Z,99706.25
2023-03-26T17:31:46.217Z,99706.59
2023-03-26T17:35:11.155Z,99720.59
2023-03-26T17:38:57.947Z,99726.06
2023-03-26T17:42:37.006Z,99726.84
2023-03-26T17:45:42.071Z,99725.78
2023-03-26T17:48:49.709Z,99728.38
2023-03-26T17:52:00.001Z,99726.88
2023-03-26T17:55:04.429Z,99728.66
2023-03-26T17:58:21.726Z,99731.00
2023-03-26T18:01:31.268Z,99738.81
2023-03-26T18:04:38.867Z,99731.66
2023-03-26T18:08:40.689Z,99735.25
2023-03-26T18:12:23.066Z,99740.94
2023-03-26T18:15:38.829Z,99741.78
2023-03-26T18:18:49.675Z,99744.28
2023-03-26T18:21:59.561Z,99742.16
2023-03-26T18:25:05.244Z,99746.16
2023-03-26T18:28:08.257Z,99744.03
2023-03-26T18:31:18.576Z,99737.56
2023-03-26T18:34:22.263Z,99737.00
2023-03-26T18:37:28.276Z,99747.63
2023-03-26T18:40:36.191Z,99750.56
2023-03-26T18:43:44.498Z,99751.75
2023-03-26T18:46:48.049Z,99757.06
2023-03-26T18:49:56.456Z,99748.44
2023-03-26T18:53:00.972Z,99759.53
2023-03-26T18:56:21.497Z,99760.00
2023-03-26T18:59:32.027Z,99760.97
2023-03-26T19:02:35.778Z,99756.84
2023-03-26T19:05:38.969Z,99767.22
2023-03-26T19:08:46.266Z,99766.75
2023-03-26T19:11:52.230Z,99763.56
2023-03-26T19:14:58.629Z,99759.78
2023-03-26T19:18:07.291Z,99762.69
2023-03-26T19:21:11.194Z,99767.25
2023-03-26T19:24:14.931Z,99767.03
2023-03-26T19:27:19.271Z,99767.81
2023-03-26T19:30:30.282Z,99765.56
2023-03-26T19:33:37.017Z,99774.38
2023-03-26T19:36:57.975Z,99771.09
2023-03-26T19:40:07.652Z,99766.72
2023-03-26T19:43:14.707Z,99770.72
2023-03-26T19:46:18.712Z,99775.09
2023-03-26T19:49:32.835Z,99779.78
2023-03-26T19:52:39.398Z,99776.94
2023-03-26T19:55:43.393Z,99786.94
2023-03-26T19:58:50.072Z,99784.19
2023-03-26T20:01:53.499Z,99781.00
2023-03-26T20:04:56.951Z,99789.59
2023-03-26T20:08:03.164Z,99795.22
2023-03-26T20:11:17.529Z,99796.59
2023-03-26T20:14:25.889Z,99808.34
2023-03-26T20:17:30.833Z,99804.53
2023-03-26T20:20:37.028Z,99818.00
2023-03-26T20:23:40.906Z,99817.94
2023-03-26T20:26:43.880Z,99814.44
2023-03-26T20:29:51.559Z,99826.38
2023-03-26T20:33:12.417Z,99826.06
2023-03-26T20:36:34.232Z,99827.22
2023-03-26T20:39:39.605Z,99850.22
2023-03-26T20:42:44.603Z,99841.09
2023-03-26T20:45:49.713Z,99842.13
2023-03-26T20:48:54.054Z,99845.84
2023-03-26T20:51:59.414Z,99845.25
2023-03-26T20:55:06.159Z,99848.31
2023-03-26T20:58:14.021Z,99855.56
2023-03-26T21:01:19.704Z,99852.25
2023-03-26T21:04:24.221Z,99847.31
2023-03-26T21:07:27.269Z,99855.78
2023-03-26T21:10:31.350Z,99861.34
2023-03-26T21:13:38.700Z,99859.72
2023-03-26T21:16:43.962Z,99859.06
2023-03-26T21:19:48.313Z,99865.88
2023-03-26T21:23:00.108Z,99870.44
2023-03-26T21:26:12.540Z,99879.41
2023-03-26T21:29:16.287Z,99870.22
2023-03-26T21:32:22.485Z,99878.91
2023-03-26T21:35:26.751Z,99884.91
2023-03-26T21:38:32.318Z,99882.50
2023-03-26T21:41:44.702Z,99891.78
2023-03-26T21:44:48.438Z,99887.53
2023-03-26T21:47:54.045Z,99892.06
2023-03-26T21:51:02.376Z,99890.13
2023-03-26T21:54:07.404Z,99888.31
2023-03-26T21:57:40.505Z,99895.13
2023-03-26T22:01:04.690Z,99891.16
2023-03-26T22:04:17.018Z,99894.03
2023-03-26T22:07:24.847Z,99890.75
2023-03-26T22:10:28.442Z,99893.50
2023-03-26T22:13:31.466Z,99901.06
2023-03-26T22:16:37.125Z,99901.91
2023-03-26T22:19:41.905Z,99907.34
2023-03-26T22:22:48.562Z,99905.59
2023-03-26T22:25:54.120Z,99898.94
2023-03-26T22:28:57.786Z,99912.47
2023-03-26T22:32:00.838Z,99910.66
2023-03-26T22:35:07.029Z,99915.53
2023-03-26T22:38:11.673Z,99914.22
2023-03-26T22:41:14.894Z,99912.78
2023-03-26T22:44:20.302Z,99922.56
2023-03-26T22:47:23.648Z,99917.56
2023-03-26T22:50:28.368Z,99923.66
2023-03-26T22:53:32.273Z,99930.13
2023-03-26T22:56:36.131Z,99938.97
2023-03-26T22:59:39.562Z,99932.13
2023-03-26T23:02:44.760Z,99931.22
2023-03-26T23:05:59.478Z,99938.75
2023-03-26T23:09:07.012Z,99940.78
2023-03-26T23:12:10.054Z,99945.00
2023-03-26T23:15:14.178Z,99941.97
2023-03-26T23:18:17.774Z,99947.78
2023-03-26T23:21:23.082Z,99944.91
2023-03-26T23:24:27.072Z,99951.63
2023-03-26T23:27:30.014Z,99967.31
2023-03-26T23:30:34.088Z,99972.47
2023-03-26T23:33:39.478Z,99968.78
2023-03-26T23:36:44.809Z,99975.19
2023-03-26T23:39:51.294Z,99982.38
2023-03-26T23:42:55.506Z,99976.84
2023-03-26T23:45:59.430Z,99991.28
2023-03-26T23:49:03.861Z,99995.63
2023-03-26T23:52:08.328Z,100002.63
2023-03-26T23:55:11.562Z,100008.28
2023-03-26T23:58:14.865Z,100014.81
